Dixie Valley, Nevada
Current Conditions -  °F | °C
As of 1:56 AM on Tuesday 21 Oct 2014 (Local Time) from KNFL Reporting Station
Clear Clear  
Wind Chill: 53°   Ceiling: Unl
Heat Index: 53°   Visibility: 10mi
Dew Point: 33°   Wind: 18mph
Humidity: 47%   Direction: 280°W
Pressure: 30"   Gusts: NA
Location:  39.5809°N, 118.333°W
Report Text: KNFL 210856Z AUTO 28016KT 10SM CLR 12/01 A3000 RMK AO2 SLP129 T01170006 51030
Loading
Personal Weather Stations






























Interactive Weather Map
Tropical Storm Tracking
New forecast layout! Learn more

10-Day Weather Forecast

Advertisements
Track Severe Weather on mobile